CJP9 weather

Charlot River Airport
Charlot River, Saskatchewan, Canada

Public forecast

Using degrees Celsius for public forecast. Weather courtesy of forecast.io.

METAR (pilot weather report)

Closest report is Fort Chipewyan Airport, 78.9 nm (146.0 km) SW. Retrieved 2019/05/20 02:00 UTC (12 minutes ago):

CYPY 200200Z AUTO 12007KT 9SM CLR 18/M01 A3002 RMK SLP174 DENSITY ALT 1100FT

TAF (pilot weather forecast)

Forecast is more than 12 hours old.

Closest forecast is Fort Chipewyan Airport, 78.9 nm (146.0 km) SW. Retrieved 2019/05/19 00:00 UTC (1 day ago):

TAF CYPY 192338Z 2000/2006 12010KT P6SM SKC TEMPO 2000/2006 5SM HZ RMK FCST BASED ON AUTO OBS. NXT FCST WILL BE ISSUED AT 201145Z